sensor_id;sensor_type;location;lat;lon;timestamp;pressure;altitude;pressure_sealevel;temperature;humidity
5062;BME280;2351;50.812;12.872;2023-11-21T00:01:10;97226.84;;;6.29;100.00
5062;BME280;2351;50.812;12.872;2023-11-21T00:03:42;97235.44;;;6.31;100.00
5062;BME280;2351;50.812;12.872;2023-11-21T00:06:14;97225.75;;;6.31;100.00
5062;BME280;2351;50.812;12.872;2023-11-21T00:08:46;97226.59;;;6.32;100.00
5062;BME280;2351;50.812;12.872;2023-11-21T00:11:19;97232.69;;;6.32;100.00
5062;BME280;2351;50.812;12.872;2023-11-21T00:13:50;97228.28;;;6.33;100.00
5062;BME280;2351;50.812;12.872;2023-11-21T00:16:23;97235.31;;;6.32;100.00
5062;BME280;2351;50.812;12.872;2023-11-21T00:18:55;97229.34;;;6.30;100.00
5062;BME280;2351;50.812;12.872;2023-11-21T00:21:27;97231.38;;;6.27;100.00
5062;BME280;2351;50.812;12.872;2023-11-21T00:23:59;97227.09;;;6.26;100.00
5062;BME280;2351;50.812;12.872;2023-11-21T00:26:32;97234.25;;;6.24;100.00
5062;BME280;2351;50.812;12.872;2023-11-21T00:29:07;97231.75;;;6.22;100.00
5062;BME280;2351;50.812;12.872;2023-11-21T00:31:39;97230.09;;;6.21;100.00
5062;BME280;2351;50.812;12.872;2023-11-21T00:34:11;97227.47;;;6.21;100.00
5062;BME280;2351;50.812;12.872;2023-11-21T00:36:43;97234.50;;;6.21;100.00
5062;BME280;2351;50.812;12.872;2023-11-21T00:39:14;97239.63;;;6.22;100.00
5062;BME280;2351;50.812;12.872;2023-11-21T00:41:47;97237.00;;;6.22;100.00
5062;BME280;2351;50.812;12.872;2023-11-21T00:44:19;97241.41;;;6.22;100.00
5062;BME280;2351;50.812;12.872;2023-11-21T00:46:51;97239.75;;;6.21;100.00
5062;BME280;2351;50.812;12.872;2023-11-21T00:49:22;97239.88;;;6.19;100.00
5062;BME280;2351;50.812;12.872;2023-11-21T00:51:54;97239.16;;;6.17;100.00
5062;BME280;2351;50.812;12.872;2023-11-21T00:54:27;97244.56;;;6.15;100.00
5062;BME280;2351;50.812;12.872;2023-11-21T00:57:00;97247.19;;;6.15;100.00
5062;BME280;2351;50.812;12.872;2023-11-21T00:59:32;97248.97;;;6.15;100.00
5062;BME280;2351;50.812;12.872;2023-11-21T01:02:03;97256.03;;;6.14;100.00
5062;BME280;2351;50.812;12.872;2023-11-21T01:04:35;97250.75;;;6.14;100.00
5062;BME280;2351;50.812;12.872;2023-11-21T01:07:07;97255.06;;;6.15;100.00
5062;BME280;2351;50.812;12.872;2023-11-21T01:09:39;97254.22;;;6.15;100.00
5062;BME280;2351;50.812;12.872;2023-11-21T01:12:12;97251.59;;;6.15;100.00
5062;BME280;2351;50.812;12.872;2023-11-21T01:14:44;97259.59;;;6.13;100.00
5062;BME280;2351;50.812;12.872;2023-11-21T01:17:16;97253.63;;;6.11;100.00
5062;BME280;2351;50.812;12.872;2023-11-21T01:19:48;97260.66;;;6.11;100.00
5062;BME280;2351;50.812;12.872;2023-11-21T01:22:20;97256.25;;;6.11;100.00
5062;BME280;2351;50.812;12.872;2023-11-21T01:24:56;97256.50;;;6.08;100.00
5062;BME280;2351;50.812;12.872;2023-11-21T01:27:29;97261.88;;;6.07;100.00
5062;BME280;2351;50.812;12.872;2023-11-21T01:30:01;97256.63;;;6.07;100.00
5062;BME280;2351;50.812;12.872;2023-11-21T01:32:33;97247.06;;;6.06;100.00
5062;BME280;2351;50.812;12.872;2023-11-21T01:35:05;97254.09;;;6.05;100.00
5062;BME280;2351;50.812;12.872;2023-11-21T01:37:37;97247.31;;;6.02;100.00
5062;BME280;2351;50.812;12.872;2023-11-21T01:40:10;97251.00;;;6.00;100.00
5062;BME280;2351;50.812;12.872;2023-11-21T01:42:45;97252.88;;;5.98;100.00
5062;BME280;2351;50.812;12.872;2023-11-21T01:45:18;97251.56;;;5.92;100.00
5062;BME280;2351;50.812;12.872;2023-11-21T01:47:50;97248.22;;;5.90;100.00
5062;BME280;2351;50.812;12.872;2023-11-21T01:50:24;97242.38;;;5.86;100.00
5062;BME280;2351;50.812;12.872;2023-11-21T01:52:56;97250.50;;;5.83;100.00
5062;BME280;2351;50.812;12.872;2023-11-21T01:55:28;97244.66;;;5.80;100.00
5062;BME280;2351;50.812;12.872;2023-11-21T01:58:02;97246.56;;;5.78;100.00
5062;BME280;2351;50.812;12.872;2023-11-21T02:00:34;97250.25;;;5.75;100.00
5062;BME280;2351;50.812;12.872;2023-11-21T02:03:07;97253.00;;;5.73;100.00
5062;BME280;2351;50.812;12.872;2023-11-21T02:05:40;97255.63;;;5.73;100.00
5062;BME280;2351;50.812;12.872;2023-11-21T02:08:12;97251.19;;;5.74;100.00
5062;BME280;2351;50.812;12.872;2023-11-21T02:10:44;97253.81;;;5.74;100.00
5062;BME280;2351;50.812;12.872;2023-11-21T02:13:19;97259.94;;;5.75;100.00
5062;BME280;2351;50.812;12.872;2023-11-21T02:15:51;97258.13;;;5.75;100.00
5062;BME280;2351;50.812;12.872;2023-11-21T02:18:24;97267.81;;;5.75;100.00
5062;BME280;2351;50.812;12.872;2023-11-21T02:20:56;97261.59;;;5.76;100.00
5062;BME280;2351;50.812;12.872;2023-11-21T02:23:30;97266.00;;;5.75;100.00
5062;BME280;2351;50.812;12.872;2023-11-21T02:26:01;97262.44;;;5.76;100.00
5062;BME280;2351;50.812;12.872;2023-11-21T02:28:34;97257.31;;;5.75;100.00
5062;BME280;2351;50.812;12.872;2023-11-21T02:31:06;97259.22;;;5.72;100.00
5062;BME280;2351;50.812;12.872;2023-11-21T02:33:38;97260.28;;;5.70;100.00
5062;BME280;2351;50.812;12.872;2023-11-21T02:36:10;97258.84;;;5.66;100.00
5062;BME280;2351;50.812;12.872;2023-11-21T02:38:43;97263.50;;;5.62;100.00
5062;BME280;2351;50.812;12.872;2023-11-21T02:41:14;97261.22;;;5.57;100.00
5062;BME280;2351;50.812;12.872;2023-11-21T02:43:46;97269.31;;;5.54;100.00
5062;BME280;2351;50.812;12.872;2023-11-21T02:46:18;97266.84;;;5.53;100.00
5062;BME280;2351;50.812;12.872;2023-11-21T02:48:49;97273.16;;;5.50;100.00
5062;BME280;2351;50.812;12.872;2023-11-21T02:51:23;97270.63;;;5.49;100.00
5062;BME280;2351;50.812;12.872;2023-11-21T02:53:56;97276.75;;;5.49;100.00
5062;BME280;2351;50.812;12.872;2023-11-21T02:56:31;97273.25;;;5.49;100.00
5062;BME280;2351;50.812;12.872;2023-11-21T02:59:03;97279.38;;;5.49;100.00
5062;BME280;2351;50.812;12.872;2023-11-21T03:01:35;97276.75;;;5.49;100.00
5062;BME280;2351;50.812;12.872;2023-11-21T03:04:06;97277.56;;;5.50;100.00
5062;BME280;2351;50.812;12.872;2023-11-21T03:06:38;97280.09;;;5.51;100.00
5062;BME280;2351;50.812;12.872;2023-11-21T03:09:11;97276.47;;;5.52;100.00
5062;BME280;2351;50.812;12.872;2023-11-21T03:11:43;97267.78;;;5.52;100.00
5062;BME280;2351;50.812;12.872;2023-11-21T03:14:15;97267.78;;;5.52;100.00
5062;BME280;2351;50.812;12.872;2023-11-21T03:16:47;97279.09;;;5.52;100.00
5062;BME280;2351;50.812;12.872;2023-11-21T03:19:19;97277.34;;;5.53;100.00
5062;BME280;2351;50.812;12.872;2023-11-21T03:21:51;97281.03;;;5.50;100.00
5062;BME280;2351;50.812;12.872;2023-11-21T03:24:25;97281.03;;;5.50;100.00
5062;BME280;2351;50.812;12.872;2023-11-21T03:26:56;97279.22;;;5.51;100.00
5062;BME280;2351;50.812;12.872;2023-11-21T03:29:28;97282.72;;;5.51;100.00
5062;BME280;2351;50.812;12.872;2023-11-21T03:32:00;97275.88;;;5.49;100.00
5062;BME280;2351;50.812;12.872;2023-11-21T03:34:32;97277.69;;;5.48;100.00
5062;BME280;2351;50.812;12.872;2023-11-21T03:37:04;97281.38;;;5.46;100.00
5062;BME280;2351;50.812;12.872;2023-11-21T03:39:37;97274.66;;;5.41;100.00
5062;BME280;2351;50.812;12.872;2023-11-21T03:42:08;97277.41;;;5.40;100.00
5062;BME280;2351;50.812;12.872;2023-11-21T03:44:40;97280.03;;;5.40;100.00
5062;BME280;2351;50.812;12.872;2023-11-21T03:47:12;97282.66;;;5.40;100.00
5062;BME280;2351;50.812;12.872;2023-11-21T03:49:44;97294.72;;;5.42;100.00
5062;BME280;2351;50.812;12.872;2023-11-21T03:52:16;97287.78;;;5.41;100.00
5062;BME280;2351;50.812;12.872;2023-11-21T03:54:49;97289.47;;;5.42;100.00
5062;BME280;2351;50.812;12.872;2023-11-21T03:57:20;97292.94;;;5.43;100.00
5062;BME280;2351;50.812;12.872;2023-11-21T03:59:52;97290.31;;;5.43;100.00
5062;BME280;2351;50.812;12.872;2023-11-21T04:02:24;97285.06;;;5.43;100.00
5062;BME280;2351;50.812;12.872;2023-11-21T04:04:57;97286.97;;;5.41;100.00
5062;BME280;2351;50.812;12.872;2023-11-21T04:07:29;97286.16;;;5.40;100.00
5062;BME280;2351;50.812;12.872;2023-11-21T04:10:02;97291.41;;;5.40;100.00
5062;BME280;2351;50.812;12.872;2023-11-21T04:12:34;97290.69;;;5.38;100.00
5062;BME280;2351;50.812;12.872;2023-11-21T04:15:07;97292.56;;;5.36;100.00
5062;BME280;2351;50.812;12.872;2023-11-21T04:17:39;97291.84;;;5.34;100.00
5062;BME280;2351;50.812;12.872;2023-11-21T04:20:11;97288.50;;;5.32;100.00
5062;BME280;2351;50.812;12.872;2023-11-21T04:22:44;97299.72;;;5.34;100.00
5062;BME280;2351;50.812;12.872;2023-11-21T04:25:17;97307.69;;;5.33;100.00
5062;BME280;2351;50.812;12.872;2023-11-21T04:27:49;97300.78;;;5.32;100.00
5062;BME280;2351;50.812;12.872;2023-11-21T04:30:21;97311.41;;;5.30;100.00
5062;BME280;2351;50.812;12.872;2023-11-21T04:32:52;97310.44;;;5.31;100.00
5062;BME280;2351;50.812;12.872;2023-11-21T04:35:24;97310.44;;;5.31;100.00
5062;BME280;2351;50.812;12.872;2023-11-21T04:37:56;97318.19;;;5.33;100.00
5062;BME280;2351;50.812;12.872;2023-11-21T04:40:29;97315.56;;;5.33;100.00
5062;BME280;2351;50.812;12.872;2023-11-21T04:43:01;97320.72;;;5.34;100.00
5062;BME280;2351;50.812;12.872;2023-11-21T04:45:34;97317.25;;;5.34;100.00
5062;BME280;2351;50.812;12.872;2023-11-21T04:48:06;97317.16;;;5.35;100.00
5062;BME280;2351;50.812;12.872;2023-11-21T04:50:38;97325.97;;;5.34;100.00
5062;BME280;2351;50.812;12.872;2023-11-21T04:53:10;97321.53;;;5.35;100.00
5062;BME280;2351;50.812;12.872;2023-11-21T04:55:45;97319.88;;;5.34;100.00
5062;BME280;2351;50.812;12.872;2023-11-21T04:58:19;97320.94;;;5.31;100.00
5062;BME280;2351;50.812;12.872;2023-11-21T05:00:51;97320.34;;;5.27;100.00
5062;BME280;2351;50.812;12.872;2023-11-21T05:03:22;97328.53;;;5.23;100.00
5062;BME280;2351;50.812;12.872;2023-11-21T05:05:55;97328.75;;;5.20;100.00
5062;BME280;2351;50.812;12.872;2023-11-21T05:08:26;97329.00;;;5.17;100.00
5062;BME280;2351;50.812;12.872;2023-11-21T05:10:59;97334.56;;;5.12;100.00
5062;BME280;2351;50.812;12.872;2023-11-21T05:13:31;97336.94;;;5.04;100.00
5062;BME280;2351;50.812;12.872;2023-11-21T05:16:05;97334.75;;;4.97;100.00
5062;BME280;2351;50.812;12.872;2023-11-21T05:18:37;97338.56;;;4.93;100.00
5062;BME280;2351;50.812;12.872;2023-11-21T05:21:11;97332.06;;;4.86;100.00
5062;BME280;2351;50.812;12.872;2023-11-21T05:23:42;97334.09;;;4.82;100.00
5062;BME280;2351;50.812;12.872;2023-11-21T05:26:15;97336.94;;;4.79;100.00
5062;BME280;2351;50.812;12.872;2023-11-21T05:28:47;97338.94;;;4.76;100.00
5062;BME280;2351;50.812;12.872;2023-11-21T05:31:19;97355.00;;;4.71;100.00
5062;BME280;2351;50.812;12.872;2023-11-21T05:33:51;97346.41;;;4.69;100.00
5062;BME280;2351;50.812;12.872;2023-11-21T05:36:22;97344.09;;;4.64;100.00
5062;BME280;2351;50.812;12.872;2023-11-21T05:38:54;97353.97;;;4.61;100.00
5062;BME280;2351;50.812;12.872;2023-11-21T05:41:27;97356.00;;;4.57;100.00
5062;BME280;2351;50.812;12.872;2023-11-21T05:43:59;97356.28;;;4.52;100.00
5062;BME280;2351;50.812;12.872;2023-11-21T05:46:32;97354.88;;;4.48;100.00
5062;BME280;2351;50.812;12.872;2023-11-21T05:49:04;97360.31;;;4.45;100.00
5062;BME280;2351;50.812;12.872;2023-11-21T05:51:38;97364.81;;;4.43;100.00
5062;BME280;2351;50.812;12.872;2023-11-21T05:54:10;97362.41;;;4.40;100.00
5062;BME280;2351;50.812;12.872;2023-11-21T05:56:43;97362.53;;;4.39;100.00
5062;BME280;2351;50.812;12.872;2023-11-21T05:59:14;97363.56;;;4.36;100.00
5062;BME280;2351;50.812;12.872;2023-11-21T06:01:46;97362.00;;;4.33;100.00
5062;BME280;2351;50.812;12.872;2023-11-21T06:04:18;97363.91;;;4.31;100.00
5062;BME280;2351;50.812;12.872;2023-11-21T06:06:52;97362.34;;;4.29;100.00
5062;BME280;2351;50.812;12.872;2023-11-21T06:09:24;97365.91;;;4.28;100.00
5062;BME280;2351;50.812;12.872;2023-11-21T06:11:57;97368.53;;;4.28;100.00
5062;BME280;2351;50.812;12.872;2023-11-21T06:14:29;97368.53;;;4.28;100.00
5062;BME280;2351;50.812;12.872;2023-11-21T06:17:00;97367.88;;;4.24;100.00
5062;BME280;2351;50.812;12.872;2023-11-21T06:19:32;97375.00;;;4.22;100.00
5062;BME280;2351;50.812;12.872;2023-11-21T06:22:04;97375.94;;;4.21;100.00
5062;BME280;2351;50.812;12.872;2023-11-21T06:24:36;97388.22;;;4.20;100.00
5062;BME280;2351;50.812;12.872;2023-11-21T06:27:09;97386.75;;;4.16;100.00
5062;BME280;2351;50.812;12.872;2023-11-21T06:29:41;97392.19;;;4.13;100.00
5062;BME280;2351;50.812;12.872;2023-11-21T06:32:13;97392.19;;;4.13;100.00
5062;BME280;2351;50.812;12.872;2023-11-21T06:34:46;97396.41;;;4.16;100.00
5062;BME280;2351;50.812;12.872;2023-11-21T06:37:18;97395.47;;;4.17;100.00
5062;BME280;2351;50.812;12.872;2023-11-21T06:39:51;97400.38;;;4.21;100.00
5062;BME280;2351;50.812;12.872;2023-11-21T06:42:24;97401.00;;;4.25;100.00
5062;BME280;2351;50.812;12.872;2023-11-21T06:44:57;97409.38;;;4.30;100.00
5062;BME280;2351;50.812;12.872;2023-11-21T06:47:29;97403.81;;;4.35;100.00
5062;BME280;2351;50.812;12.872;2023-11-21T06:50:00;97408.75;;;4.40;100.00
5062;BME280;2351;50.812;12.872;2023-11-21T06:52:32;97405.81;;;4.44;100.00
5062;BME280;2351;50.812;12.872;2023-11-21T06:55:05;97409.78;;;4.50;100.00
5062;BME280;2351;50.812;12.872;2023-11-21T06:57:39;97406.81;;;4.55;100.00
5062;BME280;2351;50.812;12.872;2023-11-21T07:00:13;97405.66;;;4.59;100.00
5062;BME280;2351;50.812;12.872;2023-11-21T07:02:47;97413.31;;;4.62;100.00
5062;BME280;2351;50.812;12.872;2023-11-21T07:05:20;97416.56;;;4.65;100.00
5062;BME280;2351;50.812;12.872;2023-11-21T07:07:52;97416.34;;;4.68;100.00
5062;BME280;2351;50.812;12.872;2023-11-21T07:10:24;97421.50;;;4.70;100.00
5062;BME280;2351;50.812;12.872;2023-11-21T07:12:58;97419.47;;;4.74;100.00
5062;BME280;2351;50.812;12.872;2023-11-21T07:15:29;97420.34;;;4.74;100.00
5062;BME280;2351;50.812;12.872;2023-11-21T07:18:01;97425.34;;;4.77;100.00
5062;BME280;2351;50.812;12.872;2023-11-21T07:20:33;97426.94;;;4.80;100.00
5062;BME280;2351;50.812;12.872;2023-11-21T07:23:05;97424.81;;;4.85;100.00
5062;BME280;2351;50.812;12.872;2023-11-21T07:25:37;97434.13;;;4.89;100.00
5062;BME280;2351;50.812;12.872;2023-11-21T07:28:10;97439.88;;;4.94;100.00
5062;BME280;2351;50.812;12.872;2023-11-21T07:30:41;97442.41;;;4.96;100.00
5062;BME280;2351;50.812;12.872;2023-11-21T07:33:13;97441.22;;;5.00;100.00
5062;BME280;2351;50.812;12.872;2023-11-21T07:35:45;97442.81;;;5.03;100.00
5062;BME280;2351;50.812;12.872;2023-11-21T07:38:17;97451.41;;;5.05;100.00
5062;BME280;2351;50.812;12.872;2023-11-21T07:40:48;97449.63;;;5.05;100.00
5062;BME280;2351;50.812;12.872;2023-11-21T07:43:21;97452.03;;;5.08;100.00
5062;BME280;2351;50.812;12.872;2023-11-21T07:45:53;97457.25;;;5.08;100.00
5062;BME280;2351;50.812;12.872;2023-11-21T07:48:25;97460.63;;;5.10;100.00
5062;BME280;2351;50.812;12.872;2023-11-21T07:50:57;97464.91;;;5.11;100.00
5062;BME280;2351;50.812;12.872;2023-11-21T07:53:29;97465.66;;;5.13;100.00
5062;BME280;2351;50.812;12.872;2023-11-21T07:56:03;97459.47;;;5.15;100.00
5062;BME280;2351;50.812;12.872;2023-11-21T07:58:37;97464.59;;;5.16;100.00
5062;BME280;2351;50.812;12.872;2023-11-21T08:01:08;97469.00;;;5.16;100.00
5062;BME280;2351;50.812;12.872;2023-11-21T08:03:40;97470.56;;;5.18;100.00
5062;BME280;2351;50.812;12.872;2023-11-21T08:06:12;97477.38;;;5.21;100.00
5062;BME280;2351;50.812;12.872;2023-11-21T08:08:43;97473.78;;;5.22;100.00
5062;BME280;2351;50.812;12.872;2023-11-21T08:11:15;97478.09;;;5.23;100.00
5062;BME280;2351;50.812;12.872;2023-11-21T08:13:48;97474.44;;;5.25;100.00
5062;BME280;2351;50.812;12.872;2023-11-21T08:16:20;97473.28;;;5.30;100.00
5062;BME280;2351;50.812;12.872;2023-11-21T08:18:51;97476.72;;;5.30;100.00
5062;BME280;2351;50.812;12.872;2023-11-21T08:21:24;97482.78;;;5.31;100.00
5062;BME280;2351;50.812;12.872;2023-11-21T08:23:57;97482.78;;;5.31;100.00
5062;BME280;2351;50.812;12.872;2023-11-21T08:26:29;97483.63;;;5.31;100.00
5062;BME280;2351;50.812;12.872;2023-11-21T08:29:02;97482.69;;;5.32;100.00
5062;BME280;2351;50.812;12.872;2023-11-21T08:31:34;97478.28;;;5.33;100.00
5062;BME280;2351;50.812;12.872;2023-11-21T08:34:05;97477.44;;;5.32;100.00
5062;BME280;2351;50.812;12.872;2023-11-21T08:36:41;97485.09;;;5.35;100.00
5062;BME280;2351;50.812;12.872;2023-11-21T08:39:13;97486.66;;;5.38;100.00
5062;BME280;2351;50.812;12.872;2023-11-21T08:41:46;97487.50;;;5.38;100.00
5062;BME280;2351;50.812;12.872;2023-11-21T08:44:19;97488.25;;;5.40;100.00
5062;BME280;2351;50.812;12.872;2023-11-21T08:46:51;97494.09;;;5.44;100.00
5062;BME280;2351;50.812;12.872;2023-11-21T08:49:23;97490.63;;;5.43;100.00
5062;BME280;2351;50.812;12.872;2023-11-21T08:51:56;97489.78;;;5.43;100.00
5062;BME280;2351;50.812;12.872;2023-11-21T08:54:30;97487.91;;;5.45;100.00
5062;BME280;2351;50.812;12.872;2023-11-21T08:57:02;97495.78;;;5.45;100.00
5062;BME280;2351;50.812;12.872;2023-11-21T08:59:35;97492.28;;;5.45;100.00
5062;BME280;2351;50.812;12.872;2023-11-21T09:02:07;97495.78;;;5.45;100.00
5062;BME280;2351;50.812;12.872;2023-11-21T09:04:38;97493.88;;;5.47;100.00
5062;BME280;2351;50.812;12.872;2023-11-21T09:07:10;97496.16;;;5.52;100.00
5062;BME280;2351;50.812;12.872;2023-11-21T09:09:42;97502.97;;;5.54;100.00
5062;BME280;2351;50.812;12.872;2023-11-21T09:12:14;97501.91;;;5.57;100.00
5062;BME280;2351;50.812;12.872;2023-11-21T09:14:47;97503.47;;;5.60;100.00
5062;BME280;2351;50.812;12.872;2023-11-21T09:17:20;97503.25;;;5.63;100.00
5062;BME280;2351;50.812;12.872;2023-11-21T09:19:52;97503.84;;;5.66;100.00
5062;BME280;2351;50.812;12.872;2023-11-21T09:22:23;97509.75;;;5.70;100.00
5062;BME280;2351;50.812;12.872;2023-11-21T09:24:57;97512.97;;;5.73;100.00
5062;BME280;2351;50.812;12.872;2023-11-21T09:27:29;97509.53;;;5.73;100.00
5062;BME280;2351;50.812;12.872;2023-11-21T09:30:02;97515.59;;;5.73;100.00
5062;BME280;2351;50.812;12.872;2023-11-21T09:32:35;97522.66;;;5.73;100.00
5062;BME280;2351;50.812;12.872;2023-11-21T09:35:08;97521.94;;;5.71;100.00
5062;BME280;2351;50.812;12.872;2023-11-21T09:37:40;97527.78;;;5.75;100.00
5062;BME280;2351;50.812;12.872;2023-11-21T09:40:12;97524.00;;;5.79;100.00
5062;BME280;2351;50.812;12.872;2023-11-21T09:42:49;97528.91;;;5.83;100.00
5062;BME280;2351;50.812;12.872;2023-11-21T09:45:27;97527.34;;;5.81;100.00
5062;BME280;2351;50.812;12.872;2023-11-21T09:47:59;97537.84;;;5.81;100.00
5062;BME280;2351;50.812;12.872;2023-11-21T09:50:31;97531.88;;;5.79;100.00
5062;BME280;2351;50.812;12.872;2023-11-21T09:53:12;97534.59;;;5.77;100.00
5062;BME280;2351;50.812;12.872;2023-11-21T09:55:46;97528.38;;;5.78;100.00
5062;BME280;2351;50.812;12.872;2023-11-21T09:58:19;97533.53;;;5.80;100.00
5062;BME280;2351;50.812;12.872;2023-11-21T10:00:55;97534.50;;;5.79;100.00
5062;BME280;2351;50.812;12.872;2023-11-21T10:03:29;97538.56;;;5.83;100.00
5062;BME280;2351;50.812;12.872;2023-11-21T10:06:01;97544.44;;;5.86;100.00
5062;BME280;2351;50.812;12.872;2023-11-21T10:08:36;97541.69;;;5.88;100.00
5062;BME280;2351;50.812;12.872;2023-11-21T10:11:08;97542.38;;;5.79;100.00
5062;BME280;2351;50.812;12.872;2023-11-21T10:13:43;97541.13;;;5.71;100.00
5062;BME280;2351;50.812;12.872;2023-11-21T10:16:19;97542.81;;;5.72;100.00
5062;BME280;2351;50.812;12.872;2023-11-21T10:18:53;97543.75;;;5.71;100.00
5062;BME280;2351;50.812;12.872;2023-11-21T10:21:26;97542.94;;;5.71;100.00
5062;BME280;2351;50.812;12.872;2023-11-21T10:23:58;97537.69;;;5.71;100.00
5062;BME280;2351;50.812;12.872;2023-11-21T10:26:32;97541.03;;;5.73;100.00
5062;BME280;2351;50.812;12.872;2023-11-21T10:29:04;97539.56;;;5.69;100.00
5062;BME280;2351;50.812;12.872;2023-11-21T10:31:37;97550.50;;;5.63;100.00
5062;BME280;2351;50.812;12.872;2023-11-21T10:34:13;97556.09;;;5.58;100.00
5062;BME280;2351;50.812;12.872;2023-11-21T10:36:45;97559.69;;;5.57;100.00
5062;BME280;2351;50.812;12.872;2023-11-21T10:39:18;97550.56;;;5.50;100.00
5062;BME280;2351;50.812;12.872;2023-11-21T10:41:50;97552.03;;;5.54;100.00
5062;BME280;2351;50.812;12.872;2023-11-21T10:44:22;97549.06;;;5.58;100.00
5062;BME280;2351;50.812;12.872;2023-11-21T10:46:55;97552.31;;;5.62;100.00
5062;BME280;2351;50.812;12.872;2023-11-21T10:49:28;97555.88;;;5.61;100.00
5062;BME280;2351;50.812;12.872;2023-11-21T10:51:59;97554.09;;;5.62;100.00
5062;BME280;2351;50.812;12.872;2023-11-21T10:54:31;97557.06;;;5.57;100.00
5062;BME280;2351;50.812;12.872;2023-11-21T10:57:04;97566.69;;;5.56;100.00
5062;BME280;2351;50.812;12.872;2023-11-21T10:59:36;97564.19;;;5.55;100.00
5062;BME280;2351;50.812;12.872;2023-11-21T11:02:21;97577.47;;;5.40;100.00
5062;BME280;2351;50.812;12.872;2023-11-21T11:04:56;97575.38;;;5.20;100.00
5062;BME280;2351;50.812;12.872;2023-11-21T11:07:29;97579.50;;;5.11;100.00
5062;BME280;2351;50.812;12.872;2023-11-21T11:10:05;97584.00;;;5.09;100.00
5062;BME280;2351;50.812;12.872;2023-11-21T11:12:39;97588.63;;;5.05;100.00
5062;BME280;2351;50.812;12.872;2023-11-21T11:15:11;97592.31;;;5.03;100.00
5062;BME280;2351;50.812;12.872;2023-11-21T11:17:44;97590.75;;;5.00;100.00
5062;BME280;2351;50.812;12.872;2023-11-21T11:20:17;97590.13;;;4.96;100.00
5062;BME280;2351;50.812;12.872;2023-11-21T11:23:04;97583.31;;;4.94;100.00
5062;BME280;2351;50.812;12.872;2023-11-21T11:25:49;97586.13;;;4.91;100.00
5062;BME280;2351;50.812;12.872;2023-11-21T11:28:29;97593.81;;;4.94;100.00
5062;BME280;2351;50.812;12.872;2023-11-21T11:31:17;97593.06;;;4.92;100.00
5062;BME280;2351;50.812;12.872;2023-11-21T11:33:59;97596.44;;;4.94;100.00
5062;BME280;2351;50.812;12.872;2023-11-21T11:36:36;97600.19;;;4.90;100.00
5062;BME280;2351;50.812;12.872;2023-11-21T11:39:29;97605.13;;;4.81;100.00
5062;BME280;2351;50.812;12.872;2023-11-21T11:42:03;97604.38;;;4.66;100.00
5062;BME280;2351;50.812;12.872;2023-11-21T11:44:50;97605.75;;;4.72;100.00
5062;BME280;2351;50.812;12.872;2023-11-21T11:47:28;97604.28;;;4.68;100.00
5062;BME280;2351;50.812;12.872;2023-11-21T11:50:06;97606.47;;;4.61;100.00
5062;BME280;2351;50.812;12.872;2023-11-21T11:52:42;97617.25;;;4.57;100.00
5062;BME280;2351;50.812;12.872;2023-11-21T11:55:15;97613.88;;;4.55;100.00
5062;BME280;2351;50.812;12.872;2023-11-21T11:57:49;97619.13;;;4.55;100.00
5062;BME280;2351;50.812;12.872;2023-11-21T12:00:22;97619.88;;;4.57;100.00
5062;BME280;2351;50.812;12.872;2023-11-21T12:03:08;97614.81;;;4.53;100.00
5062;BME280;2351;50.812;12.872;2023-11-21T12:05:42;97623.13;;;4.47;100.00
5062;BME280;2351;50.812;12.872;2023-11-21T12:08:16;97621.53;;;4.45;100.00
5062;BME280;2351;50.812;12.872;2023-11-21T12:10:47;97629.50;;;4.43;100.00
5062;BME280;2351;50.812;12.872;2023-11-21T12:13:20;97629.16;;;4.35;100.00
5062;BME280;2351;50.812;12.872;2023-11-21T12:15:53;97634.16;;;4.25;100.00
5062;BME280;2351;50.812;12.872;2023-11-21T12:18:25;97643.16;;;4.21;100.00
5062;BME280;2351;50.812;12.872;2023-11-21T12:20:59;97642.88;;;4.26;100.00
5062;BME280;2351;50.812;12.872;2023-11-21T12:23:30;97641.81;;;4.28;100.00
5062;BME280;2351;50.812;12.872;2023-11-21T12:26:02;97647.75;;;4.17;100.00
5062;BME280;2351;50.812;12.872;2023-11-21T12:28:35;97653.75;;;4.19;100.00
5062;BME280;2351;50.812;12.872;2023-11-21T12:31:06;97658.59;;;4.26;100.00
5062;BME280;2351;50.812;12.872;2023-11-21T12:33:39;97653.88;;;4.31;100.00
5062;BME280;2351;50.812;12.872;2023-11-21T12:36:12;97649.19;;;4.36;100.00
5062;BME280;2351;50.812;12.872;2023-11-21T12:38:44;97665.09;;;4.33;100.00
5062;BME280;2351;50.812;12.872;2023-11-21T12:41:16;97664.34;;;4.31;100.00
5062;BME280;2351;50.812;12.872;2023-11-21T12:43:48;97666.84;;;4.19;100.00
5062;BME280;2351;50.812;12.872;2023-11-21T12:46:20;97668.09;;;4.14;100.00
5062;BME280;2351;50.812;12.872;2023-11-21T12:48:52;97667.78;;;4.18;100.00
5062;BME280;2351;50.812;12.872;2023-11-21T12:51:25;97668.41;;;4.22;100.00
5062;BME280;2351;50.812;12.872;2023-11-21T12:53:57;97667.41;;;4.10;100.00
5062;BME280;2351;50.812;12.872;2023-11-21T12:56:29;97670.47;;;4.04;100.00
5062;BME280;2351;50.812;12.872;2023-11-21T12:59:01;97673.16;;;4.02;100.00
5062;BME280;2351;50.812;12.872;2023-11-21T13:01:35;97685.13;;;4.06;100.00
5062;BME280;2351;50.812;12.872;2023-11-21T13:04:08;97676.44;;;4.06;100.00
5062;BME280;2351;50.812;12.872;2023-11-21T13:06:42;97676.63;;;4.03;100.00
5062;BME280;2351;50.812;12.872;2023-11-21T13:09:14;97684.75;;;3.98;100.00
5062;BME280;2351;50.812;12.872;2023-11-21T13:11:59;97686.09;;;3.91;100.00
5062;BME280;2351;50.812;12.872;2023-11-21T13:14:31;97686.09;;;3.91;100.00
5062;BME280;2351;50.812;12.872;2023-11-21T13:17:04;97691.78;;;3.98;100.00
5062;BME280;2351;50.812;12.872;2023-11-21T13:19:36;97694.41;;;3.98;100.00
5062;BME280;2351;50.812;12.872;2023-11-21T13:22:10;97700.59;;;3.97;100.00
5062;BME280;2351;50.812;12.872;2023-11-21T13:24:42;97701.63;;;3.94;100.00
5062;BME280;2351;50.812;12.872;2023-11-21T13:27:14;97710.22;;;3.82;100.00
5062;BME280;2351;50.812;12.872;2023-11-21T13:29:46;97715.47;;;3.82;100.00
5062;BME280;2351;50.812;12.872;2023-11-21T13:32:19;97713.97;;;3.77;100.00
5062;BME280;2351;50.812;12.872;2023-11-21T13:34:55;97718.19;;;3.80;100.00
5062;BME280;2351;50.812;12.872;2023-11-21T13:37:29;97716.81;;;3.74;100.00
5062;BME280;2351;50.812;12.872;2023-11-21T13:40:03;97720.16;;;3.76;100.00